createdAt,value
2018-02-19T00:00:46.715Z,3.07
2018-02-19T00:01:49.184Z,3.83
2018-02-19T00:02:51.670Z,3.10
2018-02-19T00:03:54.159Z,3.33
2018-02-19T00:04:56.634Z,2.67
2018-02-19T00:05:59.121Z,3.00
2018-02-19T00:07:01.584Z,2.80
2018-02-19T00:08:04.067Z,3.50
2018-02-19T00:09:06.535Z,3.17
2018-02-19T00:10:09.021Z,3.17
2018-02-19T00:11:11.600Z,3.10
2018-02-19T00:12:14.081Z,2.87
2018-02-19T00:13:16.583Z,3.30
2018-02-19T00:14:19.062Z,3.03
2018-02-19T00:15:21.535Z,2.87
2018-02-19T00:16:24.021Z,3.50
2018-02-19T00:17:26.505Z,2.90
2018-02-19T00:18:28.986Z,3.40
2018-02-19T00:19:31.463Z,3.53
2018-02-19T00:20:33.959Z,3.03
2018-02-19T00:21:36.448Z,3.30
2018-02-19T00:22:38.916Z,3.40
2018-02-19T00:23:41.393Z,2.97
2018-02-19T00:24:43.881Z,3.23
2018-02-19T00:25:46.349Z,3.70
2018-02-19T00:26:48.816Z,3.33
2018-02-19T00:27:51.283Z,2.60
2018-02-19T00:28:53.769Z,3.17
2018-02-19T00:29:56.250Z,2.70
2018-02-19T00:30:58.733Z,3.30
2018-02-19T00:32:01.195Z,3.00
2018-02-19T00:33:03.684Z,3.30
2018-02-19T00:34:06.172Z,3.00
2018-02-19T00:35:08.635Z,2.70
2018-02-19T00:36:11.115Z,2.50
2018-02-19T00:37:13.593Z,2.77
2018-02-19T00:38:16.069Z,2.97
2018-02-19T00:39:18.566Z,3.37
2018-02-19T00:40:21.054Z,3.23
2018-02-19T00:41:23.541Z,3.10
2018-02-19T00:42:26.021Z,3.40
2018-02-19T00:43:28.526Z,3.53
2018-02-19T00:44:31.014Z,3.17
2018-02-19T00:45:33.483Z,2.90
2018-02-19T00:46:35.943Z,3.23
2018-02-19T00:47:38.426Z,2.77
2018-02-19T00:48:40.909Z,2.77
2018-02-19T00:49:43.375Z,2.90
2018-02-19T00:50:45.849Z,3.40
2018-02-19T00:51:48.327Z,2.63
2018-02-19T00:52:50.805Z,2.87
2018-02-19T00:53:53.294Z,2.93
2018-02-19T00:54:55.755Z,3.17
2018-02-19T00:55:58.241Z,3.13
2018-02-19T00:57:00.705Z,3.23
2018-02-19T00:58:03.185Z,2.90
2018-02-19T00:59:05.664Z,2.47
2018-02-19T01:00:08.141Z,3.10
2018-02-19T01:01:10.621Z,3.13
2018-02-19T01:02:13.091Z,2.60
2018-02-19T01:03:15.564Z,3.00
2018-02-19T01:04:18.047Z,2.40
2018-02-19T01:05:20.513Z,2.97
2018-02-19T01:06:22.971Z,2.80
2018-02-19T01:07:25.435Z,2.87
2018-02-19T01:08:28.527Z,3.00
2018-02-19T01:09:31.014Z,2.70
2018-02-19T01:10:33.501Z,2.63
2018-02-19T01:11:35.976Z,2.70
2018-02-19T01:12:38.460Z,2.50
2018-02-19T01:13:40.938Z,2.90
2018-02-19T01:14:43.426Z,3.63
2018-02-19T01:15:45.974Z,2.80
2018-02-19T01:16:48.441Z,2.67
2018-02-19T01:17:50.914Z,2.30
2018-02-19T01:18:53.375Z,2.57
2018-02-19T01:19:55.853Z,2.60
2018-02-19T01:20:58.341Z,2.40
2018-02-19T01:22:00.807Z,2.80
2018-02-19T01:23:03.271Z,2.70
2018-02-19T01:24:05.745Z,2.90
2018-02-19T01:25:08.206Z,2.60
2018-02-19T01:26:10.671Z,2.73
2018-02-19T01:27:13.154Z,2.63
2018-02-19T01:28:15.635Z,2.63
2018-02-19T01:29:18.117Z,2.90
2018-02-19T01:30:20.583Z,2.80
2018-02-19T01:31:23.051Z,2.60
2018-02-19T01:32:25.530Z,2.73
2018-02-19T01:33:28.018Z,2.80
2018-02-19T01:34:30.490Z,2.30
2018-02-19T01:35:32.960Z,2.40
2018-02-19T01:36:35.445Z,2.80
2018-02-19T01:37:37.920Z,2.80
2018-02-19T01:38:40.392Z,2.47
2018-02-19T01:39:42.860Z,2.80
2018-02-19T01:40:45.349Z,2.73
2018-02-19T01:41:47.838Z,3.10
2018-02-19T01:42:50.304Z,2.67
2018-02-19T01:43:52.771Z,2.70
2018-02-19T01:44:55.261Z,2.67
2018-02-19T01:45:57.745Z,2.67
2018-02-19T01:47:00.238Z,2.55
2018-02-19T01:48:02.703Z,3.13
2018-02-19T01:49:05.166Z,3.00
2018-02-19T01:50:15.471Z,2.73
2018-02-19T01:51:17.940Z,2.80
2018-02-19T01:52:20.409Z,2.33
2018-02-19T01:53:22.878Z,2.90
2018-02-19T01:54:25.364Z,2.37
2018-02-19T01:55:27.835Z,2.70
2018-02-19T01:56:30.323Z,2.70
2018-02-19T01:57:32.782Z,2.30
2018-02-19T01:58:35.252Z,2.80
2018-02-19T01:59:37.745Z,3.10
2018-02-19T02:00:40.228Z,2.62
2018-02-19T02:01:42.701Z,2.50
2018-02-19T02:02:45.180Z,2.62
2018-02-19T02:03:47.668Z,2.85
2018-02-19T02:04:50.162Z,2.40
2018-02-19T02:05:52.638Z,2.53
2018-02-19T02:06:55.134Z,2.22
2018-02-19T02:07:57.629Z,2.40
2018-02-19T02:09:00.112Z,2.65
2018-02-19T02:10:02.612Z,2.70
2018-02-19T02:11:05.090Z,2.50
2018-02-19T02:12:07.573Z,2.37
2018-02-19T02:13:10.073Z,3.20
2018-02-19T02:14:12.557Z,2.80
2018-02-19T02:15:15.055Z,2.90
2018-02-19T02:16:17.524Z,2.40
2018-02-19T02:17:20.001Z,2.43
2018-02-19T02:18:22.482Z,2.37
2018-02-19T02:19:24.962Z,2.70
2018-02-19T02:20:27.450Z,2.50
2018-02-19T02:21:29.917Z,2.30
2018-02-19T02:22:32.405Z,2.33
2018-02-19T02:23:34.898Z,2.40
2018-02-19T02:24:37.382Z,2.50
2018-02-19T02:25:39.850Z,2.60
2018-02-19T02:26:42.333Z,2.93
2018-02-19T02:27:44.815Z,2.80
2018-02-19T02:28:47.289Z,2.30
2018-02-19T02:29:49.756Z,2.33
2018-02-19T02:30:52.231Z,2.67
2018-02-19T02:31:54.717Z,2.60
2018-02-19T02:32:57.215Z,2.27
2018-02-19T02:33:59.707Z,2.20
2018-02-19T02:35:02.227Z,3.00
2018-02-19T02:36:04.703Z,1.97
2018-02-19T02:37:07.175Z,2.65
2018-02-19T02:38:09.660Z,2.55
2018-02-19T02:39:12.147Z,2.20
2018-02-19T02:40:14.632Z,3.00
2018-02-19T02:41:17.109Z,2.30
2018-02-19T02:42:19.580Z,2.57
2018-02-19T02:43:22.070Z,2.50
2018-02-19T02:44:24.669Z,2.53
2018-02-19T02:45:27.153Z,2.77
2018-02-19T02:46:29.629Z,2.70
2018-02-19T02:47:32.101Z,3.03
2018-02-19T02:48:34.596Z,2.30
2018-02-19T02:49:37.084Z,2.50
2018-02-19T02:50:39.557Z,2.43
2018-02-19T02:51:42.038Z,2.27
2018-02-19T02:52:44.504Z,2.60
2018-02-19T02:53:46.984Z,2.30
2018-02-19T02:54:49.451Z,2.20
2018-02-19T02:55:51.944Z,2.80
2018-02-19T02:56:54.419Z,2.20
2018-02-19T02:57:56.905Z,2.10
2018-02-19T02:58:59.367Z,2.33
2018-02-19T03:00:01.855Z,2.37
2018-02-19T03:01:04.405Z,2.60
2018-02-19T03:02:06.905Z,2.43
2018-02-19T03:03:09.401Z,2.40
2018-02-19T03:04:11.881Z,2.30
2018-02-19T03:05:14.355Z,2.90
2018-02-19T03:06:16.833Z,2.22
2018-02-19T03:07:19.311Z,2.55
2018-02-19T03:08:21.799Z,2.50
2018-02-19T03:09:24.319Z,2.50
2018-02-19T03:10:26.809Z,2.27
2018-02-19T03:11:29.313Z,2.55
2018-02-19T03:12:31.800Z,2.40
2018-02-19T03:13:34.294Z,2.33
2018-02-19T03:14:36.837Z,2.40
2018-02-19T03:15:39.303Z,2.30
2018-02-19T03:16:41.780Z,2.80
2018-02-19T03:17:44.323Z,2.63
2018-02-19T03:18:46.798Z,2.15
2018-02-19T03:19:49.272Z,2.22
2018-02-19T03:20:51.780Z,2.30
2018-02-19T03:21:54.259Z,2.30
2018-02-19T03:22:56.744Z,2.93
2018-02-19T03:23:59.215Z,2.40
2018-02-19T03:25:01.683Z,1.97
2018-02-19T03:26:04.176Z,2.20
2018-02-19T03:27:06.667Z,2.03
2018-02-19T03:28:09.166Z,2.33
2018-02-19T03:29:11.639Z,2.20
2018-02-19T03:30:14.112Z,2.10
2018-02-19T03:31:16.599Z,2.25
2018-02-19T03:32:19.088Z,2.30
2018-02-19T03:33:21.556Z,1.90
2018-02-19T03:34:24.203Z,2.40
2018-02-19T03:35:26.710Z,2.23
2018-02-19T03:36:29.155Z,2.30
2018-02-19T03:37:31.639Z,2.20
2018-02-19T03:38:34.105Z,2.00
2018-02-19T03:39:36.583Z,2.33
2018-02-19T03:40:39.074Z,2.22
2018-02-19T03:41:41.561Z,2.73
2018-02-19T03:42:44.061Z,2.50
2018-02-19T03:43:46.535Z,2.37
2018-02-19T03:44:49.015Z,2.35
2018-02-19T03:45:51.479Z,2.53
2018-02-19T03:46:53.959Z,1.92
2018-02-19T03:47:56.427Z,2.33
2018-02-19T03:48:58.921Z,2.10
2018-02-19T03:50:01.415Z,2.17
2018-02-19T03:51:03.891Z,2.67
2018-02-19T03:52:06.367Z,2.53
2018-02-19T03:53:08.851Z,2.20
2018-02-19T03:54:11.330Z,2.45
2018-02-19T03:55:13.826Z,2.12
2018-02-19T03:56:16.317Z,2.35
2018-02-19T03:57:18.815Z,2.20
2018-02-19T03:58:21.295Z,2.35
2018-02-19T03:59:23.771Z,1.98
2018-02-19T04:00:26.264Z,2.27
2018-02-19T04:01:28.744Z,2.35
2018-02-19T04:02:31.214Z,2.00
2018-02-19T04:03:33.691Z,1.70
2018-02-19T04:04:36.167Z,2.47
2018-02-19T04:05:38.630Z,1.93
2018-02-19T04:06:41.118Z,2.20
2018-02-19T04:07:43.580Z,2.50
2018-02-19T04:08:46.065Z,2.08
2018-02-19T04:09:48.538Z,2.28
2018-02-19T04:10:51.011Z,2.00
2018-02-19T04:11:53.501Z,2.20
2018-02-19T04:12:55.979Z,2.03
2018-02-19T04:13:58.477Z,2.00
2018-02-19T04:15:00.960Z,2.30
2018-02-19T04:16:03.459Z,1.92
2018-02-19T04:17:05.951Z,2.28
2018-02-19T04:18:08.446Z,2.12
2018-02-19T04:19:10.928Z,2.60
2018-02-19T04:20:13.471Z,2.35
2018-02-19T04:21:15.953Z,1.70
2018-02-19T04:22:18.432Z,2.28
2018-02-19T04:23:20.922Z,1.80
2018-02-19T04:24:23.417Z,2.33
2018-02-19T04:25:25.904Z,1.87
2018-02-19T04:26:28.395Z,2.30
2018-02-19T04:27:30.870Z,2.10
2018-02-19T04:28:33.358Z,2.37
2018-02-19T04:29:35.834Z,1.90
2018-02-19T04:30:38.322Z,1.93
2018-02-19T04:31:40.813Z,2.33
2018-02-19T04:32:43.297Z,2.00
2018-02-19T04:33:45.786Z,2.20
2018-02-19T04:34:48.281Z,2.33
2018-02-19T04:35:50.773Z,2.22
2018-02-19T04:36:53.264Z,2.10
2018-02-19T04:37:55.749Z,2.50
2018-02-19T04:38:58.233Z,2.05
2018-02-19T04:40:00.707Z,1.80
2018-02-19T04:41:03.171Z,2.00
2018-02-19T04:42:05.661Z,1.85
2018-02-19T04:43:10.124Z,2.00
2018-02-19T04:44:22.525Z,2.12
2018-02-19T04:45:38.748Z,2.03
2018-02-19T04:46:41.241Z,2.00
2018-02-19T04:47:43.733Z,1.60
2018-02-19T04:48:46.208Z,2.12
2018-02-19T04:49:48.696Z,2.20
2018-02-19T04:50:51.167Z,2.58
2018-02-19T04:51:53.656Z,2.00
2018-02-19T04:52:56.153Z,2.20
2018-02-19T04:53:58.637Z,1.92
2018-02-19T04:55:01.135Z,1.95
2018-02-19T04:56:03.611Z,1.83
2018-02-19T04:57:06.117Z,2.35
2018-02-19T04:58:08.600Z,1.90
2018-02-19T04:59:11.079Z,2.47
2018-02-19T05:00:13.555Z,1.92
2018-02-19T05:01:16.044Z,1.65
2018-02-19T05:02:18.525Z,1.52
2018-02-19T05:03:21.017Z,2.15
2018-02-19T05:04:23.505Z,1.85
2018-02-19T05:05:25.987Z,1.90
2018-02-19T05:06:28.463Z,2.00
2018-02-19T05:07:30.959Z,2.33
2018-02-19T05:08:33.449Z,1.90
2018-02-19T05:09:35.931Z,1.95
2018-02-19T05:10:38.413Z,1.98
2018-02-19T05:11:40.910Z,1.87
2018-02-19T05:12:43.377Z,1.97
2018-02-19T05:13:45.852Z,2.03
2018-02-19T05:14:48.331Z,1.98
2018-02-19T05:15:50.830Z,1.90
2018-02-19T05:16:53.328Z,1.50
2018-02-19T05:17:55.841Z,1.70
2018-02-19T05:18:58.324Z,1.90
2018-02-19T05:20:00.809Z,1.75
2018-02-19T05:21:03.283Z,1.80
2018-02-19T05:22:05.769Z,1.87
2018-02-19T05:23:08.265Z,1.90
2018-02-19T05:24:10.754Z,2.00
2018-02-19T05:25:13.262Z,2.00
2018-02-19T05:26:15.727Z,1.63
2018-02-19T05:27:18.222Z,1.85
2018-02-19T05:28:20.716Z,1.92
2018-02-19T05:29:23.241Z,1.90
2018-02-19T05:30:25.732Z,2.37
2018-02-19T05:31:28.238Z,1.60
2018-02-19T05:32:30.733Z,1.92
2018-02-19T05:33:33.241Z,1.85
2018-02-19T05:34:35.745Z,1.80
2018-02-19T05:35:38.214Z,1.65
2018-02-19T05:36:40.686Z,2.28
2018-02-19T05:37:43.175Z,2.30
2018-02-19T05:38:45.665Z,2.00
2018-02-19T05:39:48.161Z,2.15
2018-02-19T05:40:50.657Z,2.70
2018-02-19T05:41:53.136Z,2.50
2018-02-19T05:42:55.612Z,1.87
2018-02-19T05:43:58.102Z,2.25
2018-02-19T05:45:00.600Z,2.00
2018-02-19T05:46:03.098Z,2.65
2018-02-19T05:47:05.585Z,1.87
2018-02-19T05:48:08.060Z,2.20
2018-02-19T05:49:10.545Z,1.80
2018-02-19T05:50:13.041Z,1.80
2018-02-19T05:51:15.569Z,2.10
2018-02-19T05:52:18.062Z,2.20
2018-02-19T05:53:20.552Z,2.00
2018-02-19T05:54:23.041Z,1.87
2018-02-19T05:55:25.522Z,2.35
2018-02-19T05:56:28.023Z,2.30
2018-02-19T05:57:30.499Z,1.60
2018-02-19T05:58:32.977Z,1.98
2018-02-19T05:59:35.464Z,1.48
2018-02-19T06:00:37.947Z,2.10
2018-02-19T06:01:40.438Z,1.95
2018-02-19T06:02:42.928Z,1.77
2018-02-19T06:03:45.413Z,1.80
2018-02-19T06:04:47.907Z,1.85
2018-02-19T06:05:50.395Z,2.10
2018-02-19T06:06:52.886Z,1.50
2018-02-19T06:07:55.362Z,1.77
2018-02-19T06:08:57.853Z,1.70
2018-02-19T06:10:00.347Z,1.73
2018-02-19T06:11:02.851Z,2.00
2018-02-19T06:12:05.337Z,1.80
2018-02-19T06:13:07.850Z,2.10
2018-02-19T06:14:10.324Z,1.85
2018-02-19T06:15:12.815Z,1.90
2018-02-19T06:16:15.297Z,2.05
2018-02-19T06:17:17.771Z,2.50
2018-02-19T06:18:20.243Z,1.75
2018-02-19T06:19:22.715Z,2.10
2018-02-19T06:20:25.205Z,1.65
2018-02-19T06:21:27.683Z,2.08
2018-02-19T06:22:30.174Z,1.87
2018-02-19T06:23:32.642Z,1.58
2018-02-19T06:24:35.120Z,1.85
2018-02-19T06:25:37.607Z,1.83
2018-02-19T06:26:40.088Z,1.75
2018-02-19T06:27:42.573Z,1.85
2018-02-19T06:28:45.042Z,1.62
2018-02-19T06:29:47.530Z,1.60
2018-02-19T06:30:50.009Z,1.85
2018-02-19T06:31:52.499Z,1.87
2018-02-19T06:32:54.970Z,2.30
2018-02-19T06:33:57.467Z,1.60
2018-02-19T06:34:59.957Z,1.67
2018-02-19T06:36:02.466Z,2.05
2018-02-19T06:37:04.969Z,1.73
2018-02-19T06:38:07.456Z,2.37
2018-02-19T06:39:09.921Z,2.10
2018-02-19T06:40:12.478Z,1.80
2018-02-19T06:41:14.951Z,1.90
2018-02-19T06:42:17.422Z,1.60
2018-02-19T06:43:19.936Z,1.80
2018-02-19T06:44:22.413Z,1.67
2018-02-19T06:45:24.889Z,1.92
2018-02-19T06:46:27.363Z,2.35
2018-02-19T06:47:29.857Z,2.20
2018-02-19T06:48:32.342Z,2.03
2018-02-19T06:49:34.823Z,1.35
2018-02-19T06:50:37.329Z,1.90
2018-02-19T06:51:39.835Z,1.90
2018-02-19T06:52:42.321Z,1.83
2018-02-19T06:53:44.811Z,1.85
2018-02-19T06:54:47.283Z,1.80
2018-02-19T06:55:49.813Z,1.90
2018-02-19T06:56:52.297Z,2.00
2018-02-19T06:57:54.796Z,2.12
2018-02-19T06:58:57.279Z,2.33
2018-02-19T06:59:59.755Z,2.00
2018-02-19T07:01:02.223Z,1.95
2018-02-19T07:02:04.695Z,2.22
2018-02-19T07:03:07.174Z,3.00
2018-02-19T07:04:09.669Z,2.83
2018-02-19T07:05:12.147Z,2.10
2018-02-19T07:06:14.624Z,1.90
2018-02-19T07:07:17.471Z,2.22
2018-02-19T07:08:19.960Z,2.28
2018-02-19T07:09:22.450Z,2.28
2018-02-19T07:10:24.943Z,2.35
2018-02-19T07:11:27.423Z,2.50
2018-02-19T07:12:29.919Z,1.92
2018-02-19T07:13:32.409Z,2.15
2018-02-19T07:14:34.967Z,2.65
2018-02-19T07:15:37.545Z,2.10
2018-02-19T07:16:40.037Z,2.90
2018-02-19T07:17:42.520Z,1.98
2018-02-19T07:18:44.996Z,2.10
2018-02-19T07:19:47.475Z,2.00
2018-02-19T07:20:49.972Z,1.80
2018-02-19T07:21:52.471Z,2.03
2018-02-19T07:22:54.973Z,2.00
2018-02-19T07:23:57.604Z,2.22
2018-02-19T07:25:00.098Z,2.30
2018-02-19T07:26:02.593Z,2.20
2018-02-19T07:27:05.184Z,1.90
2018-02-19T07:28:07.680Z,2.60
2018-02-19T07:29:10.170Z,2.78
2018-02-19T07:30:12.666Z,2.40
2018-02-19T07:31:15.150Z,2.62
2018-02-19T07:32:17.642Z,2.12
2018-02-19T07:33:20.156Z,2.17
2018-02-19T07:34:22.641Z,2.47
2018-02-19T07:35:25.112Z,2.22
2018-02-19T07:36:27.596Z,3.55
2018-02-19T07:37:30.074Z,4.43
2018-02-19T07:38:32.572Z,5.15
2018-02-19T07:39:35.061Z,4.78
2018-02-19T07:40:37.546Z,4.75
2018-02-19T07:41:40.033Z,4.75
2018-02-19T07:42:42.529Z,5.28
2018-02-19T07:43:45.031Z,6.10
2018-02-19T07:44:47.593Z,6.57
2018-02-19T07:45:50.087Z,6.85
2018-02-19T07:46:52.594Z,7.32
2018-02-19T07:47:55.089Z,7.07
2018-02-19T07:48:57.591Z,6.72
2018-02-19T07:50:00.086Z,7.20
2018-02-19T07:51:02.578Z,7.05
2018-02-19T07:52:05.073Z,7.25
2018-02-19T07:53:07.648Z,7.95
2018-02-19T07:54:10.173Z,7.40
2018-02-19T07:55:12.651Z,7.10
2018-02-19T07:56:15.159Z,6.82
2018-02-19T07:57:17.639Z,7.37
2018-02-19T07:58:20.134Z,7.37
2018-02-19T07:59:22.635Z,7.12
2018-02-19T08:00:25.129Z,7.37
2018-02-19T08:01:27.619Z,7.45
2018-02-19T08:02:30.136Z,7.30
2018-02-19T08:03:32.627Z,8.25
2018-02-19T08:04:35.135Z,9.70
2018-02-19T08:05:37.623Z,8.82
2018-02-19T08:06:40.099Z,7.78
2018-02-19T08:07:42.579Z,8.15
2018-02-19T08:08:45.081Z,8.80
2018-02-19T08:09:47.596Z,7.87
2018-02-19T08:10:50.089Z,8.65
2018-02-19T08:11:52.567Z,8.40
2018-02-19T08:12:55.073Z,12.32
2018-02-19T08:13:57.550Z,9.60
2018-02-19T08:15:00.051Z,11.88
2018-02-19T08:16:02.536Z,11.45
2018-02-19T08:17:05.039Z,10.13
2018-02-19T08:18:07.527Z,10.25
2018-02-19T08:19:10.012Z,13.43
2018-02-19T08:20:12.517Z,13.52
2018-02-19T08:21:15.006Z,16.23
2018-02-19T08:22:17.494Z,16.15
2018-02-19T08:23:20.000Z,17.85
2018-02-19T08:24:22.495Z,15.80
2018-02-19T08:25:25.014Z,14.90
2018-02-19T08:26:27.503Z,14.70
2018-02-19T08:27:29.997Z,14.43
2018-02-19T08:28:32.528Z,15.50
2018-02-19T08:29:35.013Z,15.52
2018-02-19T08:30:37.511Z,17.20
2018-02-19T08:31:40.009Z,16.58
2018-02-19T08:32:42.493Z,15.73
2018-02-19T08:33:44.986Z,15.00
2018-02-19T08:34:47.482Z,14.57
2018-02-19T08:35:50.083Z,14.45
2018-02-19T08:36:52.575Z,14.35
2018-02-19T08:37:55.070Z,13.13
2018-02-19T08:38:57.970Z,13.80
2018-02-19T08:40:00.468Z,12.85
2018-02-19T08:41:02.975Z,14.68
2018-02-19T08:42:05.514Z,12.60
2018-02-19T08:43:08.009Z,13.80
2018-02-19T08:44:10.505Z,14.23
2018-02-19T08:45:12.993Z,13.00
2018-02-19T08:46:15.495Z,12.95
2018-02-19T08:47:18.019Z,12.85
2018-02-19T08:48:20.507Z,11.93
2018-02-19T08:49:23.010Z,13.05
2018-02-19T08:50:25.501Z,12.75
2018-02-19T08:51:27.998Z,11.68
2018-02-19T08:52:30.498Z,12.68
2018-02-19T08:53:32.981Z,12.63
2018-02-19T08:54:35.471Z,12.45
2018-02-19T08:55:37.970Z,12.35
2018-02-19T08:56:40.455Z,11.50
2018-02-19T08:57:42.949Z,11.65
2018-02-19T08:58:45.432Z,12.32
2018-02-19T08:59:47.915Z,11.15
2018-02-19T09:00:50.403Z,11.63
2018-02-19T09:01:52.892Z,10.43
2018-02-19T09:02:55.381Z,9.95
2018-02-19T09:03:57.863Z,10.15
2018-02-19T09:05:00.343Z,10.52
2018-02-19T09:06:02.861Z,10.30
2018-02-19T09:07:05.362Z,10.43
2018-02-19T09:08:07.871Z,10.13
2018-02-19T09:09:10.369Z,10.98
2018-02-19T09:10:12.861Z,11.40
2018-02-19T09:11:15.339Z,10.48
2018-02-19T09:12:17.818Z,10.18
2018-02-19T09:13:20.303Z,10.05
2018-02-19T09:14:22.787Z,10.65
2018-02-19T09:15:25.260Z,9.50
2018-02-19T09:16:27.739Z,9.95
2018-02-19T09:17:30.229Z,9.50
2018-02-19T09:18:32.707Z,9.77
2018-02-19T09:19:35.192Z,9.85
2018-02-19T09:20:37.780Z,8.80
2018-02-19T09:21:40.262Z,10.18
2018-02-19T09:22:42.802Z,9.15
2018-02-19T09:23:45.273Z,9.73
2018-02-19T09:24:47.751Z,9.60
2018-02-19T09:25:50.241Z,9.57
2018-02-19T09:26:52.736Z,9.52
2018-02-19T09:27:55.237Z,9.38
2018-02-19T09:28:57.719Z,9.25
2018-02-19T09:30:00.214Z,8.85
2018-02-19T09:31:02.695Z,9.00
2018-02-19T09:32:05.172Z,9.10
2018-02-19T09:33:07.662Z,9.10
2018-02-19T09:34:10.155Z,8.50
2018-02-19T09:35:12.645Z,8.75
2018-02-19T09:36:15.162Z,8.63
2018-02-19T09:37:17.647Z,8.82
2018-02-19T09:38:20.126Z,8.43
2018-02-19T09:39:22.615Z,8.02
2018-02-19T09:40:25.113Z,8.30
2018-02-19T09:41:27.599Z,8.13
2018-02-19T09:42:30.075Z,7.97
2018-02-19T09:43:32.570Z,8.25
2018-02-19T09:44:35.047Z,8.45
2018-02-19T09:45:37.572Z,8.70
2018-02-19T09:46:40.062Z,8.40
2018-02-19T09:47:42.549Z,7.57
2018-02-19T09:48:45.030Z,8.40
2018-02-19T09:49:47.522Z,8.23
2018-02-19T09:50:50.065Z,8.55
2018-02-19T09:51:52.543Z,8.65
2018-02-19T09:52:55.023Z,8.00
2018-02-19T09:53:57.517Z,8.25
2018-02-19T09:54:59.995Z,8.15
2018-02-19T09:56:02.505Z,8.23
2018-02-19T09:57:05.035Z,8.65
2018-02-19T09:58:07.507Z,7.60
2018-02-19T09:59:09.988Z,7.97
2018-02-19T10:00:12.495Z,7.93
2018-02-19T10:01:14.982Z,7.97
2018-02-19T10:02:17.478Z,8.25
2018-02-19T10:03:19.959Z,7.70
2018-02-19T10:04:22.453Z,7.85
2018-02-19T10:05:24.951Z,8.90
2018-02-19T10:06:27.437Z,7.28
2018-02-19T10:07:29.916Z,7.68
2018-02-19T10:08:32.395Z,8.13
2018-02-19T10:09:35.838Z,8.07
2018-02-19T10:10:38.326Z,7.50
2018-02-19T10:11:40.807Z,8.15
2018-02-19T10:12:43.294Z,7.65
2018-02-19T10:13:45.782Z,7.78
2018-02-19T10:14:48.276Z,7.55
2018-02-19T10:15:50.778Z,8.20
2018-02-19T10:16:53.358Z,7.60
2018-02-19T10:17:55.861Z,7.53
2018-02-19T10:18:58.351Z,7.75
2018-02-19T10:20:00.819Z,7.10
2018-02-19T10:21:03.299Z,8.10
2018-02-19T10:22:05.786Z,7.80
2018-02-19T10:23:08.280Z,7.12
2018-02-19T10:24:10.756Z,7.75
2018-02-19T10:25:13.228Z,7.35
2018-02-19T10:26:15.773Z,7.07
2018-02-19T10:27:18.351Z,7.82
2018-02-19T10:28:20.957Z,7.10
2018-02-19T10:29:23.439Z,7.75
2018-02-19T10:30:25.933Z,7.50
2018-02-19T10:31:28.421Z,7.97
2018-02-19T10:32:30.913Z,8.05
2018-02-19T10:33:33.397Z,8.05
2018-02-19T10:34:35.889Z,8.02
2018-02-19T10:35:38.382Z,7.43
2018-02-19T10:36:40.863Z,7.30
2018-02-19T10:37:43.349Z,7.47
2018-02-19T10:38:45.823Z,8.10
2018-02-19T10:39:48.299Z,7.90
2018-02-19T10:40:50.776Z,7.07
2018-02-19T10:41:53.250Z,7.65
2018-02-19T10:42:55.742Z,7.85
2018-02-19T10:43:58.237Z,7.62
2018-02-19T10:45:00.727Z,7.03
2018-02-19T10:46:03.221Z,7.50
2018-02-19T10:47:05.705Z,7.32
2018-02-19T10:48:08.225Z,7.40
2018-02-19T10:49:10.699Z,7.18
2018-02-19T10:50:13.190Z,7.57
2018-02-19T10:51:15.672Z,7.90
2018-02-19T10:52:18.201Z,6.50
2018-02-19T10:53:20.701Z,7.82
2018-02-19T10:54:23.188Z,7.57
2018-02-19T10:55:25.663Z,7.75
2018-02-19T10:56:28.161Z,7.30
2018-02-19T10:57:30.635Z,7.40
2018-02-19T10:58:33.142Z,7.97
2018-02-19T10:59:35.627Z,7.37
2018-02-19T11:00:43.695Z,6.80
2018-02-19T11:01:46.185Z,7.07
2018-02-19T11:02:48.672Z,7.25
2018-02-19T11:03:51.147Z,7.25
2018-02-19T11:04:53.680Z,7.32
2018-02-19T11:05:56.148Z,7.90
2018-02-19T11:06:58.623Z,8.30
2018-02-19T11:08:01.109Z,7.30
2018-02-19T11:09:03.602Z,7.07
2018-02-19T11:10:06.085Z,7.05
2018-02-19T11:11:08.581Z,7.12
2018-02-19T11:12:11.131Z,7.32
2018-02-19T11:13:13.629Z,6.82
2018-02-19T11:14:16.119Z,7.00
2018-02-19T11:15:18.592Z,6.60
2018-02-19T11:16:21.135Z,6.80
2018-02-19T11:17:23.616Z,7.30
2018-02-19T11:18:26.092Z,6.70
2018-02-19T11:19:28.589Z,7.05
2018-02-19T11:20:31.064Z,6.78
2018-02-19T11:21:33.540Z,7.37
2018-02-19T11:22:36.112Z,6.80
2018-02-19T11:23:38.600Z,7.03
2018-02-19T11:24:41.079Z,6.32
2018-02-19T11:25:43.570Z,6.68
2018-02-19T11:26:46.054Z,6.75
2018-02-19T11:27:48.532Z,7.35
2018-02-19T11:28:51.017Z,7.28
2018-02-19T11:29:53.482Z,6.55
2018-02-19T11:30:55.955Z,6.28
2018-02-19T11:31:58.439Z,6.40
2018-02-19T11:33:00.937Z,6.55
2018-02-19T11:34:03.420Z,6.75
2018-02-19T11:35:05.907Z,6.30
2018-02-19T11:36:08.385Z,6.70
2018-02-19T11:37:10.878Z,6.53
2018-02-19T11:38:13.348Z,7.12
2018-02-19T11:39:15.874Z,6.97
2018-02-19T11:40:18.337Z,6.80
2018-02-19T11:41:20.812Z,6.47
2018-02-19T11:42:23.291Z,6.80
2018-02-19T11:43:25.763Z,6.43
2018-02-19T11:44:28.254Z,6.97
2018-02-19T11:45:30.731Z,6.95
2018-02-19T11:46:33.203Z,6.65
2018-02-19T11:47:35.679Z,6.70
2018-02-19T11:48:38.166Z,6.95
2018-02-19T11:49:40.658Z,6.45
2018-02-19T11:50:43.127Z,6.93
2018-02-19T11:51:45.617Z,6.40
2018-02-19T11:52:48.102Z,6.50
2018-02-19T11:53:50.633Z,6.60
2018-02-19T11:54:53.129Z,6.43
2018-02-19T11:55:55.619Z,6.78
2018-02-19T11:56:58.096Z,6.68
2018-02-19T11:58:00.587Z,6.40
2018-02-19T11:59:03.089Z,6.35
2018-02-19T12:00:05.570Z,6.40
2018-02-19T12:01:08.051Z,7.07
2018-02-19T12:02:10.537Z,7.28
2018-02-19T12:03:13.011Z,6.20
2018-02-19T12:04:15.483Z,6.78
2018-02-19T12:05:17.983Z,6.37
2018-02-19T12:06:20.461Z,6.43
2018-02-19T12:07:22.935Z,6.70
2018-02-19T12:08:25.403Z,6.82
2018-02-19T12:09:28.793Z,6.93
2018-02-19T12:10:31.393Z,6.72
2018-02-19T12:11:33.894Z,6.50
2018-02-19T12:12:36.385Z,6.30
2018-02-19T12:13:38.859Z,6.60
2018-02-19T12:14:41.531Z,7.60
2018-02-19T12:15:44.041Z,6.95
2018-02-19T12:16:46.519Z,7.35
2018-02-19T12:17:49.006Z,6.82
2018-02-19T12:18:51.629Z,6.87
2018-02-19T12:19:54.117Z,6.30
2018-02-19T12:20:56.591Z,6.40
2018-02-19T12:21:59.078Z,6.95
2018-02-19T12:23:01.547Z,6.18
2018-02-19T12:24:04.040Z,5.95
2018-02-19T12:25:06.530Z,6.07
2018-02-19T12:26:09.025Z,6.93
2018-02-19T12:27:11.526Z,6.20
2018-02-19T12:28:14.014Z,6.80
2018-02-19T12:29:16.492Z,5.85
2018-02-19T12:30:19.006Z,6.55
2018-02-19T12:31:21.505Z,7.10
2018-02-19T12:32:24.026Z,7.10
2018-02-19T12:33:26.504Z,6.72
2018-02-19T12:34:28.982Z,6.22
2018-02-19T12:35:31.582Z,5.93
2018-02-19T12:36:34.063Z,5.78
2018-02-19T12:37:36.562Z,6.90
2018-02-19T12:38:39.049Z,8.20
2018-02-19T12:39:41.539Z,7.03
2018-02-19T12:40:44.046Z,7.30
2018-02-19T12:41:46.541Z,7.60
2018-02-19T12:42:49.033Z,7.93
2018-02-19T12:43:51.514Z,8.87
2018-02-19T12:44:54.021Z,8.40
2018-02-19T12:45:56.521Z,8.00
2018-02-19T12:46:59.008Z,8.37
2018-02-19T12:48:01.491Z,8.70
2018-02-19T12:49:03.972Z,8.10
2018-02-19T12:50:06.440Z,7.70
2018-02-19T12:51:08.916Z,7.80
2018-02-19T12:52:11.386Z,7.47
2018-02-19T12:53:13.860Z,8.30
2018-02-19T12:54:16.353Z,8.37
2018-02-19T12:55:18.854Z,7.77
2018-02-19T12:56:21.339Z,8.50
2018-02-19T12:57:23.832Z,7.43
2018-02-19T12:58:26.309Z,7.13
2018-02-19T12:59:28.850Z,7.70
2018-02-19T13:00:31.407Z,7.77
2018-02-19T13:01:33.892Z,7.87
2018-02-19T13:02:36.363Z,8.03
2018-02-19T13:03:38.830Z,8.17
2018-02-19T13:04:41.325Z,7.83
2018-02-19T13:05:43.810Z,6.80
2018-02-19T13:06:46.275Z,6.90
2018-02-19T13:07:48.748Z,7.20
2018-02-19T13:08:51.245Z,7.50
2018-02-19T13:09:53.716Z,7.80
2018-02-19T13:10:56.210Z,7.33
2018-02-19T13:11:58.699Z,7.50
2018-02-19T13:13:01.163Z,6.90
2018-02-19T13:14:03.636Z,7.77
2018-02-19T13:15:06.168Z,6.80
2018-02-19T13:16:08.678Z,7.00
2018-02-19T13:17:11.162Z,7.70
2018-02-19T13:18:13.625Z,6.50
2018-02-19T13:19:16.113Z,6.70
2018-02-19T13:20:18.613Z,7.10
2018-02-19T13:21:21.094Z,6.77
2018-02-19T13:22:23.585Z,6.50
2018-02-19T13:23:26.065Z,5.97
2018-02-19T13:24:28.539Z,6.60
2018-02-19T13:25:31.017Z,6.20
2018-02-19T13:26:33.480Z,6.50
2018-02-19T13:27:35.951Z,6.63
2018-02-19T13:28:38.423Z,6.73
2018-02-19T13:29:40.901Z,6.40
2018-02-19T13:30:43.376Z,6.17
2018-02-19T13:31:45.843Z,6.40
2018-02-19T13:32:48.350Z,6.33
2018-02-19T13:33:50.837Z,5.80
2018-02-19T13:34:53.328Z,6.80
2018-02-19T13:35:55.799Z,5.40
2018-02-19T13:36:58.266Z,6.23
2018-02-19T13:38:00.727Z,6.00
2018-02-19T13:39:03.313Z,6.63
2018-02-19T13:40:05.792Z,6.00
2018-02-19T13:41:08.279Z,6.50
2018-02-19T13:42:10.762Z,5.30
2018-02-19T13:43:13.246Z,5.90
2018-02-19T13:44:15.722Z,5.60
2018-02-19T13:45:18.192Z,5.20
2018-02-19T13:46:20.676Z,5.80
2018-02-19T13:47:23.322Z,5.40
2018-02-19T13:48:25.755Z,5.60
2018-02-19T13:49:28.248Z,6.00
2018-02-19T13:50:30.718Z,5.67